sensor_id;sensor_type;location;lat;lon;timestamp;P1;durP1;ratioP1;P2;durP2;ratioP2
29878;SDS011;16752;53.364;-1.488;2023-04-29T00:01:22;20.30;;;14.43;;
29878;SDS011;16752;53.364;-1.488;2023-04-29T00:04:07;19.05;;;15.15;;
29878;SDS011;16752;53.364;-1.488;2023-04-29T00:06:51;18.48;;;14.43;;
29878;SDS011;16752;53.364;-1.488;2023-04-29T00:09:36;14.25;;;12.57;;
29878;SDS011;16752;53.364;-1.488;2023-04-29T00:12:21;19.70;;;14.25;;
29878;SDS011;16752;53.364;-1.488;2023-04-29T00:15:05;18.67;;;15.70;;
29878;SDS011;16752;53.364;-1.488;2023-04-29T00:17:50;16.90;;;15.00;;
29878;SDS011;16752;53.364;-1.488;2023-04-29T00:20:34;16.80;;;12.27;;
29878;SDS011;16752;53.364;-1.488;2023-04-29T00:23:18;15.00;;;13.05;;
29878;SDS011;16752;53.364;-1.488;2023-04-29T00:26:02;16.83;;;13.93;;
29878;SDS011;16752;53.364;-1.488;2023-04-29T00:28:46;13.60;;;11.65;;
29878;SDS011;16752;53.364;-1.488;2023-04-29T00:31:30;15.77;;;12.20;;
29878;SDS011;16752;53.364;-1.488;2023-04-29T00:34:15;14.93;;;12.30;;
29878;SDS011;16752;53.364;-1.488;2023-04-29T00:36:59;14.00;;;11.93;;
29878;SDS011;16752;53.364;-1.488;2023-04-29T00:39:43;14.65;;;12.18;;
29878;SDS011;16752;53.364;-1.488;2023-04-29T00:42:28;13.60;;;11.10;;
29878;SDS011;16752;53.364;-1.488;2023-04-29T00:45:16;19.17;;;13.73;;
29878;SDS011;16752;53.364;-1.488;2023-04-29T00:48:00;14.45;;;11.40;;
29878;SDS011;16752;53.364;-1.488;2023-04-29T00:50:44;16.55;;;12.80;;
29878;SDS011;16752;53.364;-1.488;2023-04-29T00:53:28;16.17;;;14.48;;
29878;SDS011;16752;53.364;-1.488;2023-04-29T00:56:15;18.73;;;14.27;;
29878;SDS011;16752;53.364;-1.488;2023-04-29T00:59:01;16.38;;;14.05;;
29878;SDS011;16752;53.364;-1.488;2023-04-29T01:01:46;18.67;;;15.50;;
29878;SDS011;16752;53.364;-1.488;2023-04-29T01:04:30;16.17;;;14.48;;
29878;SDS011;16752;53.364;-1.488;2023-04-29T01:07:15;17.23;;;15.38;;
29878;SDS011;16752;53.364;-1.488;2023-04-29T01:13:17;18.40;;;15.77;;
29878;SDS011;16752;53.364;-1.488;2023-04-29T01:16:17;18.53;;;15.37;;
29878;SDS011;16752;53.364;-1.488;2023-04-29T01:19:15;17.83;;;15.68;;
29878;SDS011;16752;53.364;-1.488;2023-04-29T01:22:09;19.70;;;17.00;;
29878;SDS011;16752;53.364;-1.488;2023-04-29T01:24:53;19.27;;;16.52;;
29878;SDS011;16752;53.364;-1.488;2023-04-29T01:34:08;19.02;;;15.30;;
29878;SDS011;16752;53.364;-1.488;2023-04-29T01:39:59;18.63;;;15.05;;
29878;SDS011;16752;53.364;-1.488;2023-04-29T01:43:00;19.20;;;15.48;;
29878;SDS011;16752;53.364;-1.488;2023-04-29T01:45:46;19.92;;;14.80;;
29878;SDS011;16752;53.364;-1.488;2023-04-29T01:48:29;18.35;;;14.35;;
29878;SDS011;16752;53.364;-1.488;2023-04-29T01:51:14;20.58;;;15.05;;
29878;SDS011;16752;53.364;-1.488;2023-04-29T01:53:58;20.95;;;16.10;;
29878;SDS011;16752;53.364;-1.488;2023-04-29T01:56:42;21.25;;;16.52;;
29878;SDS011;16752;53.364;-1.488;2023-04-29T01:59:27;20.75;;;16.48;;
29878;SDS011;16752;53.364;-1.488;2023-04-29T02:02:11;21.77;;;17.75;;
29878;SDS011;16752;53.364;-1.488;2023-04-29T02:04:57;21.65;;;17.58;;
29878;SDS011;16752;53.364;-1.488;2023-04-29T02:07:41;21.35;;;17.52;;
29878;SDS011;16752;53.364;-1.488;2023-04-29T02:10:27;23.58;;;18.52;;
29878;SDS011;16752;53.364;-1.488;2023-04-29T02:13:11;20.98;;;18.27;;
29878;SDS011;16752;53.364;-1.488;2023-04-29T02:15:56;20.67;;;18.30;;
29878;SDS011;16752;53.364;-1.488;2023-04-29T02:18:40;21.80;;;17.73;;
29878;SDS011;16752;53.364;-1.488;2023-04-29T02:21:24;22.65;;;17.10;;
29878;SDS011;16752;53.364;-1.488;2023-04-29T02:24:09;21.25;;;16.40;;
29878;SDS011;16752;53.364;-1.488;2023-04-29T02:26:54;19.58;;;16.48;;
29878;SDS011;16752;53.364;-1.488;2023-04-29T02:29:39;21.08;;;16.67;;
29878;SDS011;16752;53.364;-1.488;2023-04-29T02:32:23;21.02;;;16.33;;
29878;SDS011;16752;53.364;-1.488;2023-04-29T02:35:06;21.23;;;15.90;;
29878;SDS011;16752;53.364;-1.488;2023-04-29T02:37:51;20.10;;;16.70;;
29878;SDS011;16752;53.364;-1.488;2023-04-29T02:40:44;21.25;;;17.10;;
29878;SDS011;16752;53.364;-1.488;2023-04-29T02:43:29;25.92;;;19.02;;
29878;SDS011;16752;53.364;-1.488;2023-04-29T02:46:14;21.23;;;17.05;;
29878;SDS011;16752;53.364;-1.488;2023-04-29T02:48:59;27.30;;;18.95;;
29878;SDS011;16752;53.364;-1.488;2023-04-29T02:51:43;24.70;;;19.35;;
29878;SDS011;16752;53.364;-1.488;2023-04-29T02:54:28;22.05;;;18.90;;
29878;SDS011;16752;53.364;-1.488;2023-04-29T02:57:12;22.38;;;17.35;;
29878;SDS011;16752;53.364;-1.488;2023-04-29T02:59:58;27.00;;;20.20;;
29878;SDS011;16752;53.364;-1.488;2023-04-29T03:02:50;26.33;;;19.75;;
29878;SDS011;16752;53.364;-1.488;2023-04-29T03:05:36;25.25;;;19.15;;
29878;SDS011;16752;53.364;-1.488;2023-04-29T03:08:23;27.23;;;19.27;;
29878;SDS011;16752;53.364;-1.488;2023-04-29T03:11:07;25.20;;;20.02;;
29878;SDS011;16752;53.364;-1.488;2023-04-29T03:13:51;25.10;;;19.67;;
29878;SDS011;16752;53.364;-1.488;2023-04-29T03:16:35;25.90;;;19.60;;
29878;SDS011;16752;53.364;-1.488;2023-04-29T03:19:19;27.85;;;19.45;;
29878;SDS011;16752;53.364;-1.488;2023-04-29T03:22:03;26.70;;;19.55;;
29878;SDS011;16752;53.364;-1.488;2023-04-29T03:24:48;26.10;;;19.92;;
29878;SDS011;16752;53.364;-1.488;2023-04-29T03:27:32;23.67;;;19.80;;
29878;SDS011;16752;53.364;-1.488;2023-04-29T03:30:16;29.88;;;21.08;;
29878;SDS011;16752;53.364;-1.488;2023-04-29T03:33:00;29.02;;;22.13;;
29878;SDS011;16752;53.364;-1.488;2023-04-29T03:35:44;27.33;;;20.17;;
29878;SDS011;16752;53.364;-1.488;2023-04-29T03:38:31;32.22;;;20.67;;
29878;SDS011;16752;53.364;-1.488;2023-04-29T03:41:15;26.48;;;19.50;;
29878;SDS011;16752;53.364;-1.488;2023-04-29T03:44:00;25.35;;;19.42;;
29878;SDS011;16752;53.364;-1.488;2023-04-29T03:46:44;31.45;;;21.05;;
29878;SDS011;16752;53.364;-1.488;2023-04-29T03:49:28;25.75;;;20.67;;
29878;SDS011;16752;53.364;-1.488;2023-04-29T03:52:12;23.73;;;18.20;;
29878;SDS011;16752;53.364;-1.488;2023-04-29T03:54:59;24.80;;;18.73;;
29878;SDS011;16752;53.364;-1.488;2023-04-29T03:57:43;28.50;;;19.63;;
29878;SDS011;16752;53.364;-1.488;2023-04-29T04:00:28;28.02;;;21.33;;
29878;SDS011;16752;53.364;-1.488;2023-04-29T04:03:13;27.02;;;20.25;;
29878;SDS011;16752;53.364;-1.488;2023-04-29T04:05:57;26.17;;;19.90;;
29878;SDS011;16752;53.364;-1.488;2023-04-29T04:08:44;29.95;;;22.15;;
29878;SDS011;16752;53.364;-1.488;2023-04-29T04:11:28;25.98;;;19.25;;
29878;SDS011;16752;53.364;-1.488;2023-04-29T04:14:12;30.75;;;21.48;;
29878;SDS011;16752;53.364;-1.488;2023-04-29T04:16:56;27.88;;;20.33;;
29878;SDS011;16752;53.364;-1.488;2023-04-29T04:19:40;28.05;;;19.85;;
29878;SDS011;16752;53.364;-1.488;2023-04-29T04:22:25;28.63;;;19.40;;
29878;SDS011;16752;53.364;-1.488;2023-04-29T04:25:09;25.98;;;18.65;;
29878;SDS011;16752;53.364;-1.488;2023-04-29T04:27:54;24.80;;;18.73;;
29878;SDS011;16752;53.364;-1.488;2023-04-29T04:30:38;23.25;;;17.30;;
29878;SDS011;16752;53.364;-1.488;2023-04-29T04:33:23;23.60;;;18.08;;
29878;SDS011;16752;53.364;-1.488;2023-04-29T04:36:08;24.73;;;17.40;;
29878;SDS011;16752;53.364;-1.488;2023-04-29T04:38:52;24.55;;;17.95;;
29878;SDS011;16752;53.364;-1.488;2023-04-29T04:41:36;24.17;;;15.93;;
29878;SDS011;16752;53.364;-1.488;2023-04-29T04:44:21;27.38;;;17.38;;
29878;SDS011;16752;53.364;-1.488;2023-04-29T04:47:05;26.58;;;18.30;;
29878;SDS011;16752;53.364;-1.488;2023-04-29T04:49:49;23.92;;;15.93;;
29878;SDS011;16752;53.364;-1.488;2023-04-29T04:52:35;24.45;;;16.27;;
29878;SDS011;16752;53.364;-1.488;2023-04-29T04:55:19;27.23;;;17.20;;
29878;SDS011;16752;53.364;-1.488;2023-04-29T04:58:03;26.80;;;17.77;;
29878;SDS011;16752;53.364;-1.488;2023-04-29T05:00:47;25.40;;;17.30;;
29878;SDS011;16752;53.364;-1.488;2023-04-29T05:03:31;25.02;;;16.90;;
29878;SDS011;16752;53.364;-1.488;2023-04-29T05:06:16;22.63;;;16.58;;
29878;SDS011;16752;53.364;-1.488;2023-04-29T05:09:00;27.98;;;17.10;;
29878;SDS011;16752;53.364;-1.488;2023-04-29T05:11:44;24.77;;;18.95;;
29878;SDS011;16752;53.364;-1.488;2023-04-29T05:14:29;23.20;;;16.77;;
29878;SDS011;16752;53.364;-1.488;2023-04-29T05:17:13;22.05;;;16.35;;
29878;SDS011;16752;53.364;-1.488;2023-04-29T05:19:57;26.13;;;18.88;;
29878;SDS011;16752;53.364;-1.488;2023-04-29T05:22:43;24.05;;;16.25;;
29878;SDS011;16752;53.364;-1.488;2023-04-29T05:25:27;28.55;;;19.60;;
29878;SDS011;16752;53.364;-1.488;2023-04-29T05:28:11;24.38;;;17.42;;
29878;SDS011;16752;53.364;-1.488;2023-04-29T05:30:55;25.80;;;18.60;;
29878;SDS011;16752;53.364;-1.488;2023-04-29T05:33:39;23.95;;;16.67;;
29878;SDS011;16752;53.364;-1.488;2023-04-29T05:36:24;27.83;;;18.02;;
29878;SDS011;16752;53.364;-1.488;2023-04-29T05:39:08;27.08;;;17.73;;
29878;SDS011;16752;53.364;-1.488;2023-04-29T05:41:52;24.35;;;16.73;;
29878;SDS011;16752;53.364;-1.488;2023-04-29T05:44:36;27.23;;;18.88;;
29878;SDS011;16752;53.364;-1.488;2023-04-29T05:47:23;24.83;;;17.48;;
29878;SDS011;16752;53.364;-1.488;2023-04-29T05:50:07;25.95;;;18.65;;
29878;SDS011;16752;53.364;-1.488;2023-04-29T05:52:51;26.90;;;17.23;;
29878;SDS011;16752;53.364;-1.488;2023-04-29T05:55:38;29.13;;;17.48;;
29878;SDS011;16752;53.364;-1.488;2023-04-29T05:58:22;27.85;;;18.17;;
29878;SDS011;16752;53.364;-1.488;2023-04-29T06:01:06;30.13;;;19.00;;
29878;SDS011;16752;53.364;-1.488;2023-04-29T06:03:50;24.90;;;17.42;;
29878;SDS011;16752;53.364;-1.488;2023-04-29T06:06:34;24.17;;;16.38;;
29878;SDS011;16752;53.364;-1.488;2023-04-29T06:09:19;29.33;;;19.48;;
29878;SDS011;16752;53.364;-1.488;2023-04-29T06:12:03;32.40;;;19.77;;
29878;SDS011;16752;53.364;-1.488;2023-04-29T06:14:48;30.80;;;19.75;;
29878;SDS011;16752;53.364;-1.488;2023-04-29T06:17:33;36.47;;;19.95;;
29878;SDS011;16752;53.364;-1.488;2023-04-29T06:20:17;34.53;;;20.85;;
29878;SDS011;16752;53.364;-1.488;2023-04-29T06:23:01;32.67;;;19.60;;
29878;SDS011;16752;53.364;-1.488;2023-04-29T06:25:49;30.17;;;17.85;;
29878;SDS011;16752;53.364;-1.488;2023-04-29T06:28:37;31.70;;;19.67;;
29878;SDS011;16752;53.364;-1.488;2023-04-29T06:31:34;31.85;;;18.95;;
29878;SDS011;16752;53.364;-1.488;2023-04-29T06:34:18;22.58;;;15.40;;
29878;SDS011;16752;53.364;-1.488;2023-04-29T06:37:09;35.90;;;23.60;;
29878;SDS011;16752;53.364;-1.488;2023-04-29T06:40:14;34.03;;;22.92;;
29878;SDS011;16752;53.364;-1.488;2023-04-29T06:43:05;37.72;;;22.90;;
29878;SDS011;16752;53.364;-1.488;2023-04-29T06:45:55;32.90;;;22.17;;
29878;SDS011;16752;53.364;-1.488;2023-04-29T06:48:39;32.38;;;21.58;;
29878;SDS011;16752;53.364;-1.488;2023-04-29T06:51:53;28.70;;;19.63;;
29878;SDS011;16752;53.364;-1.488;2023-04-29T06:54:38;30.00;;;18.88;;
29878;SDS011;16752;53.364;-1.488;2023-04-29T06:57:27;27.02;;;17.92;;
29878;SDS011;16752;53.364;-1.488;2023-04-29T07:00:20;20.50;;;15.52;;
29878;SDS011;16752;53.364;-1.488;2023-04-29T07:03:07;19.75;;;15.02;;
29878;SDS011;16752;53.364;-1.488;2023-04-29T07:05:54;23.60;;;16.10;;
29878;SDS011;16752;53.364;-1.488;2023-04-29T07:08:40;20.38;;;14.18;;
29878;SDS011;16752;53.364;-1.488;2023-04-29T07:11:26;15.75;;;12.73;;
29878;SDS011;16752;53.364;-1.488;2023-04-29T07:14:10;19.73;;;13.10;;
29878;SDS011;16752;53.364;-1.488;2023-04-29T07:16:59;14.82;;;10.98;;
29878;SDS011;16752;53.364;-1.488;2023-04-29T07:19:43;12.85;;;9.32;;
29878;SDS011;16752;53.364;-1.488;2023-04-29T07:22:30;13.45;;;10.00;;
29878;SDS011;16752;53.364;-1.488;2023-04-29T07:25:14;13.63;;;9.40;;
29878;SDS011;16752;53.364;-1.488;2023-04-29T07:27:58;11.00;;;8.50;;
29878;SDS011;16752;53.364;-1.488;2023-04-29T07:30:43;9.27;;;6.70;;
29878;SDS011;16752;53.364;-1.488;2023-04-29T07:33:27;9.60;;;6.47;;
29878;SDS011;16752;53.364;-1.488;2023-04-29T07:36:11;9.13;;;6.75;;
29878;SDS011;16752;53.364;-1.488;2023-04-29T07:38:58;7.55;;;5.90;;
29878;SDS011;16752;53.364;-1.488;2023-04-29T07:41:42;5.55;;;5.05;;
29878;SDS011;16752;53.364;-1.488;2023-04-29T07:44:27;5.22;;;4.35;;
29878;SDS011;16752;53.364;-1.488;2023-04-29T07:47:11;4.97;;;3.65;;
29878;SDS011;16752;53.364;-1.488;2023-04-29T07:49:55;7.90;;;4.50;;
29878;SDS011;16752;53.364;-1.488;2023-04-29T07:52:40;4.30;;;3.38;;
29878;SDS011;16752;53.364;-1.488;2023-04-29T07:55:24;3.33;;;3.03;;
29878;SDS011;16752;53.364;-1.488;2023-04-29T07:58:09;3.28;;;2.95;;
29878;SDS011;16752;53.364;-1.488;2023-04-29T08:00:53;2.25;;;2.05;;
29878;SDS011;16752;53.364;-1.488;2023-04-29T08:03:38;2.55;;;2.35;;
29878;SDS011;16752;53.364;-1.488;2023-04-29T08:06:22;3.35;;;2.58;;
29878;SDS011;16752;53.364;-1.488;2023-04-29T08:09:06;2.45;;;2.15;;
29878;SDS011;16752;53.364;-1.488;2023-04-29T08:11:52;2.83;;;2.50;;
29878;SDS011;16752;53.364;-1.488;2023-04-29T08:14:36;5.65;;;3.17;;
29878;SDS011;16752;53.364;-1.488;2023-04-29T08:17:21;4.75;;;3.92;;
29878;SDS011;16752;53.364;-1.488;2023-04-29T08:20:05;5.30;;;4.80;;
29878;SDS011;16752;53.364;-1.488;2023-04-29T08:22:52;7.88;;;6.95;;
29878;SDS011;16752;53.364;-1.488;2023-04-29T08:25:39;7.10;;;6.13;;
29878;SDS011;16752;53.364;-1.488;2023-04-29T08:28:24;7.38;;;4.88;;
29878;SDS011;16752;53.364;-1.488;2023-04-29T08:31:14;3.95;;;3.60;;
29878;SDS011;16752;53.364;-1.488;2023-04-29T08:33:59;5.45;;;4.28;;
29878;SDS011;16752;53.364;-1.488;2023-04-29T08:36:44;6.90;;;5.47;;
29878;SDS011;16752;53.364;-1.488;2023-04-29T08:39:29;8.65;;;5.88;;
29878;SDS011;16752;53.364;-1.488;2023-04-29T08:42:14;10.32;;;7.15;;
29878;SDS011;16752;53.364;-1.488;2023-04-29T08:44:59;8.07;;;7.28;;
29878;SDS011;16752;53.364;-1.488;2023-04-29T08:47:43;9.60;;;7.60;;
29878;SDS011;16752;53.364;-1.488;2023-04-29T08:50:35;9.03;;;6.97;;
29878;SDS011;16752;53.364;-1.488;2023-04-29T08:53:21;6.60;;;6.00;;
29878;SDS011;16752;53.364;-1.488;2023-04-29T08:56:12;7.18;;;5.88;;
29878;SDS011;16752;53.364;-1.488;2023-04-29T08:59:03;12.27;;;6.72;;
29878;SDS011;16752;53.364;-1.488;2023-04-29T09:01:49;7.90;;;5.60;;
29878;SDS011;16752;53.364;-1.488;2023-04-29T09:07:38;6.18;;;5.10;;
29878;SDS011;16752;53.364;-1.488;2023-04-29T09:10:24;7.53;;;5.40;;
29878;SDS011;16752;53.364;-1.488;2023-04-29T09:13:13;6.55;;;5.40;;
29878;SDS011;16752;53.364;-1.488;2023-04-29T09:16:10;7.07;;;5.45;;
29878;SDS011;16752;53.364;-1.488;2023-04-29T09:18:55;7.78;;;5.68;;
29878;SDS011;16752;53.364;-1.488;2023-04-29T09:21:40;6.75;;;4.97;;
29878;SDS011;16752;53.364;-1.488;2023-04-29T09:24:24;7.40;;;5.57;;
29878;SDS011;16752;53.364;-1.488;2023-04-29T09:27:10;7.43;;;5.65;;
29878;SDS011;16752;53.364;-1.488;2023-04-29T09:30:09;8.02;;;5.20;;
29878;SDS011;16752;53.364;-1.488;2023-04-29T09:33:13;7.32;;;5.05;;
29878;SDS011;16752;53.364;-1.488;2023-04-29T09:36:07;8.10;;;5.40;;
29878;SDS011;16752;53.364;-1.488;2023-04-29T09:39:06;5.05;;;4.47;;
29878;SDS011;16752;53.364;-1.488;2023-04-29T09:42:03;6.82;;;4.90;;
29878;SDS011;16752;53.364;-1.488;2023-04-29T09:44:56;7.15;;;5.90;;
29878;SDS011;16752;53.364;-1.488;2023-04-29T09:47:41;5.47;;;4.63;;
29878;SDS011;16752;53.364;-1.488;2023-04-29T09:50:25;6.53;;;3.72;;
29878;SDS011;16752;53.364;-1.488;2023-04-29T09:53:09;4.43;;;3.38;;
29878;SDS011;16752;53.364;-1.488;2023-04-29T09:55:58;5.57;;;4.05;;
29878;SDS011;16752;53.364;-1.488;2023-04-29T09:58:42;4.83;;;4.07;;
29878;SDS011;16752;53.364;-1.488;2023-04-29T10:01:29;5.97;;;4.43;;
29878;SDS011;16752;53.364;-1.488;2023-04-29T10:04:14;4.57;;;3.97;;
29878;SDS011;16752;53.364;-1.488;2023-04-29T10:07:00;6.57;;;4.63;;
29878;SDS011;16752;53.364;-1.488;2023-04-29T10:09:46;5.05;;;4.55;;
29878;SDS011;16752;53.364;-1.488;2023-04-29T10:12:34;5.03;;;4.63;;
29878;SDS011;16752;53.364;-1.488;2023-04-29T10:15:25;5.77;;;5.17;;
29878;SDS011;16752;53.364;-1.488;2023-04-29T10:18:18;5.60;;;4.63;;
29878;SDS011;16752;53.364;-1.488;2023-04-29T10:21:07;4.88;;;4.38;;
29878;SDS011;16752;53.364;-1.488;2023-04-29T10:24:01;7.38;;;5.57;;
29878;SDS011;16752;53.364;-1.488;2023-04-29T10:26:47;6.53;;;4.85;;
29878;SDS011;16752;53.364;-1.488;2023-04-29T10:29:35;5.97;;;5.22;;
29878;SDS011;16752;53.364;-1.488;2023-04-29T10:32:22;5.10;;;4.07;;
29878;SDS011;16752;53.364;-1.488;2023-04-29T10:35:09;5.22;;;4.30;;
29878;SDS011;16752;53.364;-1.488;2023-04-29T10:37:54;6.72;;;5.20;;
29878;SDS011;16752;53.364;-1.488;2023-04-29T10:40:43;4.60;;;4.20;;
29878;SDS011;16752;53.364;-1.488;2023-04-29T10:43:31;5.70;;;4.47;;
29878;SDS011;16752;53.364;-1.488;2023-04-29T10:49:01;5.47;;;4.80;;
29878;SDS011;16752;53.364;-1.488;2023-04-29T10:51:46;5.50;;;4.55;;
29878;SDS011;16752;53.364;-1.488;2023-04-29T10:54:30;5.43;;;4.13;;
29878;SDS011;16752;53.364;-1.488;2023-04-29T10:57:21;6.30;;;4.47;;
29878;SDS011;16752;53.364;-1.488;2023-04-29T11:00:05;5.38;;;4.38;;
29878;SDS011;16752;53.364;-1.488;2023-04-29T11:02:50;6.07;;;4.60;;
29878;SDS011;16752;53.364;-1.488;2023-04-29T11:05:34;6.90;;;3.70;;
29878;SDS011;16752;53.364;-1.488;2023-04-29T11:08:20;4.93;;;3.40;;
29878;SDS011;16752;53.364;-1.488;2023-04-29T11:11:31;4.68;;;3.65;;
29878;SDS011;16752;53.364;-1.488;2023-04-29T11:14:40;3.28;;;2.67;;
29878;SDS011;16752;53.364;-1.488;2023-04-29T11:17:26;3.67;;;2.17;;
29878;SDS011;16752;53.364;-1.488;2023-04-29T11:20:18;2.50;;;2.10;;
29878;SDS011;16752;53.364;-1.488;2023-04-29T11:23:02;2.40;;;2.20;;
29878;SDS011;16752;53.364;-1.488;2023-04-29T11:25:48;2.92;;;2.60;;
29878;SDS011;16752;53.364;-1.488;2023-04-29T11:28:32;3.03;;;2.35;;
29878;SDS011;16752;53.364;-1.488;2023-04-29T11:31:17;3.55;;;2.95;;
29878;SDS011;16752;53.364;-1.488;2023-04-29T11:34:04;3.53;;;2.33;;
29878;SDS011;16752;53.364;-1.488;2023-04-29T11:36:49;4.00;;;3.05;;
29878;SDS011;16752;53.364;-1.488;2023-04-29T11:39:37;2.63;;;1.85;;
29878;SDS011;16752;53.364;-1.488;2023-04-29T11:42:21;3.28;;;2.83;;
29878;SDS011;16752;53.364;-1.488;2023-04-29T11:45:05;2.28;;;2.08;;
29878;SDS011;16752;53.364;-1.488;2023-04-29T11:47:53;2.92;;;2.72;;
29878;SDS011;16752;53.364;-1.488;2023-04-29T11:50:44;3.67;;;3.28;;
29878;SDS011;16752;53.364;-1.488;2023-04-29T11:53:35;3.35;;;3.05;;
29878;SDS011;16752;53.364;-1.488;2023-04-29T11:56:23;2.53;;;2.33;;
29878;SDS011;16752;53.364;-1.488;2023-04-29T11:59:08;5.20;;;2.85;;
29878;SDS011;16752;53.364;-1.488;2023-04-29T12:01:52;2.33;;;2.13;;
29878;SDS011;16752;53.364;-1.488;2023-04-29T12:04:43;2.40;;;2.22;;
29878;SDS011;16752;53.364;-1.488;2023-04-29T12:07:28;2.78;;;2.58;;
29878;SDS011;16752;53.364;-1.488;2023-04-29T12:10:13;3.10;;;2.88;;
29878;SDS011;16752;53.364;-1.488;2023-04-29T12:12:57;3.45;;;3.13;;
29878;SDS011;16752;53.364;-1.488;2023-04-29T12:15:41;3.80;;;3.45;;
29878;SDS011;16752;53.364;-1.488;2023-04-29T12:18:27;4.05;;;3.15;;
29878;SDS011;16752;53.364;-1.488;2023-04-29T12:21:16;4.30;;;2.97;;
29878;SDS011;16752;53.364;-1.488;2023-04-29T12:24:21;4.55;;;4.10;;
29878;SDS011;16752;53.364;-1.488;2023-04-29T12:27:08;4.28;;;3.85;;
29878;SDS011;16752;53.364;-1.488;2023-04-29T12:29:55;4.70;;;4.25;;
29878;SDS011;16752;53.364;-1.488;2023-04-29T12:32:39;3.78;;;3.45;;
29878;SDS011;16752;53.364;-1.488;2023-04-29T12:35:32;4.45;;;3.72;;
29878;SDS011;16752;53.364;-1.488;2023-04-29T12:38:23;5.18;;;4.68;;
29878;SDS011;16752;53.364;-1.488;2023-04-29T12:41:40;4.75;;;4.35;;
29878;SDS011;16752;53.364;-1.488;2023-04-29T12:44:38;4.97;;;4.43;;
29878;SDS011;16752;53.364;-1.488;2023-04-29T12:47:24;6.35;;;4.93;;
29878;SDS011;16752;53.364;-1.488;2023-04-29T12:50:19;5.63;;;5.13;;
29878;SDS011;16752;53.364;-1.488;2023-04-29T12:53:04;5.15;;;4.75;;
29878;SDS011;16752;53.364;-1.488;2023-04-29T12:55:50;7.85;;;6.03;;
29878;SDS011;16752;53.364;-1.488;2023-04-29T12:58:42;6.72;;;6.07;;
29878;SDS011;16752;53.364;-1.488;2023-04-29T13:02:03;6.20;;;5.50;;
29878;SDS011;16752;53.364;-1.488;2023-04-29T13:04:47;9.73;;;7.40;;
29878;SDS011;16752;53.364;-1.488;2023-04-29T13:07:35;7.93;;;7.13;;
29878;SDS011;16752;53.364;-1.488;2023-04-29T13:10:23;7.65;;;6.90;;
29878;SDS011;16752;53.364;-1.488;2023-04-29T13:13:12;8.82;;;7.28;;
29878;SDS011;16752;53.364;-1.488;2023-04-29T13:15:59;11.23;;;10.07;;
29878;SDS011;16752;53.364;-1.488;2023-04-29T13:18:52;10.10;;;8.20;;
29878;SDS011;16752;53.364;-1.488;2023-04-29T13:21:55;9.45;;;6.72;;
29878;SDS011;16752;53.364;-1.488;2023-04-29T13:24:42;10.43;;;9.07;;
29878;SDS011;16752;53.364;-1.488;2023-04-29T13:27:29;11.82;;;8.90;;
29878;SDS011;16752;53.364;-1.488;2023-04-29T13:30:13;11.05;;;8.80;;
29878;SDS011;16752;53.364;-1.488;2023-04-29T13:33:43;10.57;;;8.10;;
29878;SDS011;16752;53.364;-1.488;2023-04-29T13:45:55;10.27;;;9.30;;
29878;SDS011;16752;53.364;-1.488;2023-04-29T13:52:40;11.15;;;9.98;;
29878;SDS011;16752;53.364;-1.488;2023-04-29T13:55:25;10.55;;;9.52;;
29878;SDS011;16752;53.364;-1.488;2023-04-29T13:58:11;11.90;;;9.75;;
29878;SDS011;16752;53.364;-1.488;2023-04-29T14:01:17;7.95;;;7.25;;
29878;SDS011;16752;53.364;-1.488;2023-04-29T14:13:58;8.85;;;7.38;;
29878;SDS011;16752;53.364;-1.488;2023-04-29T14:28:44;17.35;;;13.50;;
29878;SDS011;16752;53.364;-1.488;2023-04-29T14:31:32;19.55;;;14.98;;
29878;SDS011;16752;53.364;-1.488;2023-04-29T14:34:26;70.45;;;45.65;;
29878;SDS011;16752;53.364;-1.488;2023-04-29T14:37:15;36.42;;;24.60;;
29878;SDS011;16752;53.364;-1.488;2023-04-29T14:40:00;17.00;;;14.75;;
29878;SDS011;16752;53.364;-1.488;2023-04-29T14:45:35;12.32;;;10.60;;
29878;SDS011;16752;53.364;-1.488;2023-04-29T14:48:30;13.90;;;11.77;;
29878;SDS011;16752;53.364;-1.488;2023-04-29T14:54:08;15.38;;;12.50;;
29878;SDS011;16752;53.364;-1.488;2023-04-29T15:00:22;15.32;;;13.13;;
29878;SDS011;16752;53.364;-1.488;2023-04-29T15:03:44;19.23;;;15.50;;
29878;SDS011;16752;53.364;-1.488;2023-04-29T15:11:54;32.35;;;18.30;;
29878;SDS011;16752;53.364;-1.488;2023-04-29T15:23:07;14.93;;;13.15;;
29878;SDS011;16752;53.364;-1.488;2023-04-29T16:06:18;18.00;;;15.93;;
29878;SDS011;16752;53.364;-1.488;2023-04-29T16:10:04;20.63;;;17.15;;
29878;SDS011;16752;53.364;-1.488;2023-04-29T17:05:33;28.55;;;23.15;;
29878;SDS011;16752;53.364;-1.488;2023-04-29T17:08:18;28.70;;;24.33;;
29878;SDS011;16752;53.364;-1.488;2023-04-29T17:11:02;34.08;;;24.05;;
29878;SDS011;16752;53.364;-1.488;2023-04-29T17:13:47;22.13;;;18.52;;
29878;SDS011;16752;53.364;-1.488;2023-04-29T17:16:33;21.15;;;18.05;;
29878;SDS011;16752;53.364;-1.488;2023-04-29T17:19:17;24.73;;;18.95;;
29878;SDS011;16752;53.364;-1.488;2023-04-29T17:22:01;23.35;;;20.88;;
29878;SDS011;16752;53.364;-1.488;2023-04-29T17:24:45;25.05;;;21.50;;
29878;SDS011;16752;53.364;-1.488;2023-04-29T17:27:29;25.65;;;22.83;;
29878;SDS011;16752;53.364;-1.488;2023-04-29T17:30:13;30.52;;;23.63;;
29878;SDS011;16752;53.364;-1.488;2023-04-29T17:32:57;31.77;;;25.63;;
29878;SDS011;16752;53.364;-1.488;2023-04-29T17:35:51;27.80;;;22.20;;
29878;SDS011;16752;53.364;-1.488;2023-04-29T17:38:38;29.80;;;24.77;;
29878;SDS011;16752;53.364;-1.488;2023-04-29T17:41:23;28.77;;;25.33;;
29878;SDS011;16752;53.364;-1.488;2023-04-29T17:44:07;34.40;;;26.77;;
29878;SDS011;16752;53.364;-1.488;2023-04-29T17:46:52;31.83;;;26.38;;
29878;SDS011;16752;53.364;-1.488;2023-04-29T17:49:36;31.30;;;25.55;;
29878;SDS011;16752;53.364;-1.488;2023-04-29T17:52:20;27.27;;;23.45;;
29878;SDS011;16752;53.364;-1.488;2023-04-29T17:55:04;24.73;;;21.98;;
29878;SDS011;16752;53.364;-1.488;2023-04-29T17:57:48;20.17;;;18.08;;
29878;SDS011;16752;53.364;-1.488;2023-04-29T18:00:33;19.73;;;16.02;;
29878;SDS011;16752;53.364;-1.488;2023-04-29T18:03:20;19.20;;;16.20;;
29878;SDS011;16752;53.364;-1.488;2023-04-29T18:06:05;20.42;;;18.33;;
29878;SDS011;16752;53.364;-1.488;2023-04-29T18:08:50;24.33;;;20.05;;
29878;SDS011;16752;53.364;-1.488;2023-04-29T18:11:39;21.27;;;19.05;;
29878;SDS011;16752;53.364;-1.488;2023-04-29T18:14:26;23.98;;;19.50;;
29878;SDS011;16752;53.364;-1.488;2023-04-29T18:17:11;21.20;;;17.38;;
29878;SDS011;16752;53.364;-1.488;2023-04-29T18:19:55;18.63;;;16.48;;
29878;SDS011;16752;53.364;-1.488;2023-04-29T18:22:39;19.52;;;17.17;;
29878;SDS011;16752;53.364;-1.488;2023-04-29T18:25:23;20.30;;;16.35;;
29878;SDS011;16752;53.364;-1.488;2023-04-29T18:28:07;22.42;;;17.83;;
29878;SDS011;16752;53.364;-1.488;2023-04-29T18:30:51;22.17;;;16.95;;
29878;SDS011;16752;53.364;-1.488;2023-04-29T18:33:35;18.35;;;16.45;;
29878;SDS011;16752;53.364;-1.488;2023-04-29T18:36:20;20.88;;;18.35;;
29878;SDS011;16752;53.364;-1.488;2023-04-29T18:39:06;20.73;;;17.42;;
29878;SDS011;16752;53.364;-1.488;2023-04-29T18:41:50;25.58;;;21.90;;
29878;SDS011;16752;53.364;-1.488;2023-04-29T18:44:38;19.58;;;16.58;;
29878;SDS011;16752;53.364;-1.488;2023-04-29T18:47:22;24.77;;;20.15;;
29878;SDS011;16752;53.364;-1.488;2023-04-29T18:50:06;24.60;;;21.02;;
29878;SDS011;16752;53.364;-1.488;2023-04-29T18:52:51;24.15;;;20.30;;
29878;SDS011;16752;53.364;-1.488;2023-04-29T18:55:35;22.60;;;18.52;;
29878;SDS011;16752;53.364;-1.488;2023-04-29T18:58:20;19.17;;;16.27;;
29878;SDS011;16752;53.364;-1.488;2023-04-29T19:01:04;20.75;;;17.35;;
29878;SDS011;16752;53.364;-1.488;2023-04-29T19:03:48;21.23;;;18.33;;